sensor_id;sensor_type;location;lat;lon;timestamp;P1;durP1;ratioP1;P2;durP2;ratioP2
6207;SDS011;3137;51.550;7.060;2023-03-16T00:02:04;7.70;;;7.13;;
6207;SDS011;3137;51.550;7.060;2023-03-16T00:04:31;7.93;;;6.93;;
6207;SDS011;3137;51.550;7.060;2023-03-16T00:07:03;10.87;;;8.00;;
6207;SDS011;3137;51.550;7.060;2023-03-16T00:09:34;14.07;;;6.70;;
6207;SDS011;3137;51.550;7.060;2023-03-16T00:12:13;8.00;;;7.27;;
6207;SDS011;3137;51.550;7.060;2023-03-16T00:14:42;12.13;;;7.23;;
6207;SDS011;3137;51.550;7.060;2023-03-16T00:17:10;11.97;;;7.57;;
6207;SDS011;3137;51.550;7.060;2023-03-16T00:19:47;7.83;;;7.33;;
6207;SDS011;3137;51.550;7.060;2023-03-16T00:22:20;7.77;;;7.37;;
6207;SDS011;3137;51.550;7.060;2023-03-16T00:24:48;7.80;;;6.90;;
6207;SDS011;3137;51.550;7.060;2023-03-16T00:27:15;6.57;;;6.30;;
6207;SDS011;3137;51.550;7.060;2023-03-16T00:29:42;10.67;;;6.60;;
6207;SDS011;3137;51.550;7.060;2023-03-16T00:32:18;6.77;;;6.47;;
6207;SDS011;3137;51.550;7.060;2023-03-16T00:34:46;6.83;;;6.53;;
6207;SDS011;3137;51.550;7.060;2023-03-16T00:37:14;6.13;;;5.77;;
6207;SDS011;3137;51.550;7.060;2023-03-16T00:39:42;6.80;;;6.47;;
6207;SDS011;3137;51.550;7.060;2023-03-16T00:42:14;9.23;;;6.20;;
6207;SDS011;3137;51.550;7.060;2023-03-16T00:44:41;5.90;;;5.70;;
6207;SDS011;3137;51.550;7.060;2023-03-16T00:47:08;6.23;;;5.90;;
6207;SDS011;3137;51.550;7.060;2023-03-16T00:49:39;6.07;;;5.87;;
6207;SDS011;3137;51.550;7.060;2023-03-16T00:52:08;5.97;;;5.63;;
6207;SDS011;3137;51.550;7.060;2023-03-16T00:54:40;6.73;;;6.13;;
6207;SDS011;3137;51.550;7.060;2023-03-16T00:57:08;6.50;;;6.00;;
6207;SDS011;3137;51.550;7.060;2023-03-16T00:59:37;7.13;;;6.80;;
6207;SDS011;3137;51.550;7.060;2023-03-16T01:02:04;7.13;;;6.43;;
6207;SDS011;3137;51.550;7.060;2023-03-16T01:04:32;6.60;;;6.00;;
6207;SDS011;3137;51.550;7.060;2023-03-16T01:07:04;6.47;;;6.07;;
6207;SDS011;3137;51.550;7.060;2023-03-16T01:09:32;7.37;;;6.57;;
6207;SDS011;3137;51.550;7.060;2023-03-16T01:12:09;6.63;;;6.37;;
6207;SDS011;3137;51.550;7.060;2023-03-16T01:14:42;6.33;;;6.00;;
6207;SDS011;3137;51.550;7.060;2023-03-16T01:17:11;7.60;;;6.20;;
6207;SDS011;3137;51.550;7.060;2023-03-16T01:19:39;6.97;;;5.93;;
6207;SDS011;3137;51.550;7.060;2023-03-16T01:22:06;6.70;;;6.40;;
6207;SDS011;3137;51.550;7.060;2023-03-16T01:24:34;6.80;;;6.27;;
6207;SDS011;3137;51.550;7.060;2023-03-16T01:27:02;7.03;;;6.33;;
6207;SDS011;3137;51.550;7.060;2023-03-16T01:29:29;6.27;;;5.80;;
6207;SDS011;3137;51.550;7.060;2023-03-16T01:31:57;6.90;;;6.57;;
6207;SDS011;3137;51.550;7.060;2023-03-16T01:34:24;8.00;;;6.80;;
6207;SDS011;3137;51.550;7.060;2023-03-16T01:36:50;7.93;;;7.37;;
6207;SDS011;3137;51.550;7.060;2023-03-16T01:39:27;9.03;;;6.50;;
6207;SDS011;3137;51.550;7.060;2023-03-16T01:41:53;8.57;;;7.00;;
6207;SDS011;3137;51.550;7.060;2023-03-16T01:44:21;8.80;;;8.17;;
6207;SDS011;3137;51.550;7.060;2023-03-16T01:46:58;8.50;;;7.87;;
6207;SDS011;3137;51.550;7.060;2023-03-16T01:49:29;7.70;;;7.30;;
6207;SDS011;3137;51.550;7.060;2023-03-16T01:52:10;8.83;;;7.13;;
6207;SDS011;3137;51.550;7.060;2023-03-16T02:02:24;6.73;;;6.23;;
6207;SDS011;3137;51.550;7.060;2023-03-16T02:05:02;6.87;;;6.27;;
6207;SDS011;3137;51.550;7.060;2023-03-16T02:07:35;7.20;;;6.83;;
6207;SDS011;3137;51.550;7.060;2023-03-16T02:10:07;8.00;;;7.33;;
6207;SDS011;3137;51.550;7.060;2023-03-16T02:12:35;6.90;;;6.70;;
6207;SDS011;3137;51.550;7.060;2023-03-16T02:15:03;11.13;;;7.63;;
6207;SDS011;3137;51.550;7.060;2023-03-16T02:17:31;8.57;;;7.77;;
6207;SDS011;3137;51.550;7.060;2023-03-16T02:20:10;8.77;;;7.10;;
6207;SDS011;3137;51.550;7.060;2023-03-16T02:22:48;7.93;;;7.20;;
6207;SDS011;3137;51.550;7.060;2023-03-16T02:25:21;8.03;;;6.20;;
6207;SDS011;3137;51.550;7.060;2023-03-16T02:31:02;8.20;;;6.90;;
6207;SDS011;3137;51.550;7.060;2023-03-16T02:33:31;7.03;;;6.60;;
6207;SDS011;3137;51.550;7.060;2023-03-16T02:35:59;7.17;;;6.80;;
6207;SDS011;3137;51.550;7.060;2023-03-16T02:38:26;7.53;;;6.90;;
6207;SDS011;3137;51.550;7.060;2023-03-16T02:40:55;6.40;;;6.10;;
6207;SDS011;3137;51.550;7.060;2023-03-16T02:43:26;7.87;;;7.23;;
6207;SDS011;3137;51.550;7.060;2023-03-16T02:46:08;6.97;;;6.67;;
6207;SDS011;3137;51.550;7.060;2023-03-16T02:48:40;7.80;;;7.20;;
6207;SDS011;3137;51.550;7.060;2023-03-16T02:51:10;6.80;;;6.43;;
6207;SDS011;3137;51.550;7.060;2023-03-16T02:53:37;10.67;;;7.87;;
6207;SDS011;3137;51.550;7.060;2023-03-16T02:56:04;8.07;;;7.37;;
6207;SDS011;3137;51.550;7.060;2023-03-16T02:58:33;7.97;;;6.10;;
6207;SDS011;3137;51.550;7.060;2023-03-16T03:01:03;5.77;;;5.40;;
6207;SDS011;3137;51.550;7.060;2023-03-16T03:03:31;7.80;;;7.13;;
6207;SDS011;3137;51.550;7.060;2023-03-16T03:06:00;6.20;;;5.83;;
6207;SDS011;3137;51.550;7.060;2023-03-16T03:08:31;7.77;;;7.13;;
6207;SDS011;3137;51.550;7.060;2023-03-16T03:10:58;8.70;;;7.80;;
6207;SDS011;3137;51.550;7.060;2023-03-16T03:13:25;8.47;;;7.97;;
6207;SDS011;3137;51.550;7.060;2023-03-16T03:15:51;6.90;;;6.60;;
6207;SDS011;3137;51.550;7.060;2023-03-16T03:18:21;6.80;;;6.57;;
6207;SDS011;3137;51.550;7.060;2023-03-16T03:20:47;8.40;;;7.50;;
6207;SDS011;3137;51.550;7.060;2023-03-16T03:23:15;5.57;;;5.27;;
6207;SDS011;3137;51.550;7.060;2023-03-16T03:25:42;5.83;;;5.63;;
6207;SDS011;3137;51.550;7.060;2023-03-16T03:28:09;11.63;;;10.60;;
6207;SDS011;3137;51.550;7.060;2023-03-16T03:30:36;8.77;;;8.20;;
6207;SDS011;3137;51.550;7.060;2023-03-16T03:33:03;8.43;;;7.83;;
6207;SDS011;3137;51.550;7.060;2023-03-16T03:35:29;7.37;;;6.97;;
6207;SDS011;3137;51.550;7.060;2023-03-16T03:37:56;8.53;;;7.90;;
6207;SDS011;3137;51.550;7.060;2023-03-16T03:40:24;5.60;;;5.23;;
6207;SDS011;3137;51.550;7.060;2023-03-16T03:42:57;5.63;;;5.43;;
6207;SDS011;3137;51.550;7.060;2023-03-16T03:45:23;7.57;;;6.83;;
6207;SDS011;3137;51.550;7.060;2023-03-16T03:47:50;6.53;;;6.00;;
6207;SDS011;3137;51.550;7.060;2023-03-16T03:50:19;8.33;;;7.83;;
6207;SDS011;3137;51.550;7.060;2023-03-16T03:53:09;7.37;;;7.07;;
6207;SDS011;3137;51.550;7.060;2023-03-16T03:55:55;6.00;;;5.50;;
6207;SDS011;3137;51.550;7.060;2023-03-16T03:58:21;5.13;;;5.13;;
6207;SDS011;3137;51.550;7.060;2023-03-16T04:00:48;5.10;;;4.83;;
6207;SDS011;3137;51.550;7.060;2023-03-16T04:03:14;5.43;;;5.13;;
6207;SDS011;3137;51.550;7.060;2023-03-16T04:05:43;6.47;;;5.70;;
6207;SDS011;3137;51.550;7.060;2023-03-16T04:08:11;6.17;;;5.57;;
6207;SDS011;3137;51.550;7.060;2023-03-16T04:10:37;6.13;;;5.83;;
6207;SDS011;3137;51.550;7.060;2023-03-16T04:13:04;7.10;;;6.67;;
6207;SDS011;3137;51.550;7.060;2023-03-16T04:15:32;6.43;;;6.00;;
6207;SDS011;3137;51.550;7.060;2023-03-16T04:18:08;5.63;;;5.20;;
6207;SDS011;3137;51.550;7.060;2023-03-16T04:20:35;5.93;;;5.73;;
6207;SDS011;3137;51.550;7.060;2023-03-16T04:23:02;6.10;;;5.53;;
6207;SDS011;3137;51.550;7.060;2023-03-16T04:25:30;5.23;;;5.03;;
6207;SDS011;3137;51.550;7.060;2023-03-16T04:27:57;6.87;;;6.33;;
6207;SDS011;3137;51.550;7.060;2023-03-16T04:30:27;5.80;;;5.57;;
6207;SDS011;3137;51.550;7.060;2023-03-16T04:33:05;5.53;;;5.43;;
6207;SDS011;3137;51.550;7.060;2023-03-16T04:35:31;6.83;;;6.43;;
6207;SDS011;3137;51.550;7.060;2023-03-16T04:37:57;6.30;;;5.80;;
6207;SDS011;3137;51.550;7.060;2023-03-16T04:40:33;9.07;;;6.90;;
6207;SDS011;3137;51.550;7.060;2023-03-16T04:43:06;9.77;;;6.23;;
6207;SDS011;3137;51.550;7.060;2023-03-16T04:45:33;6.93;;;6.23;;
6207;SDS011;3137;51.550;7.060;2023-03-16T04:48:00;6.60;;;6.17;;
6207;SDS011;3137;51.550;7.060;2023-03-16T04:50:26;5.63;;;5.33;;
6207;SDS011;3137;51.550;7.060;2023-03-16T04:52:53;6.33;;;5.70;;
6207;SDS011;3137;51.550;7.060;2023-03-16T04:55:20;5.33;;;5.03;;
6207;SDS011;3137;51.550;7.060;2023-03-16T04:57:48;7.87;;;5.37;;
6207;SDS011;3137;51.550;7.060;2023-03-16T05:00:15;6.27;;;5.93;;
6207;SDS011;3137;51.550;7.060;2023-03-16T05:02:53;5.63;;;5.43;;
6207;SDS011;3137;51.550;7.060;2023-03-16T05:05:19;4.97;;;4.73;;
6207;SDS011;3137;51.550;7.060;2023-03-16T05:07:46;5.00;;;4.57;;
6207;SDS011;3137;51.550;7.060;2023-03-16T05:10:15;6.03;;;5.73;;
6207;SDS011;3137;51.550;7.060;2023-03-16T05:12:43;5.27;;;5.00;;
6207;SDS011;3137;51.550;7.060;2023-03-16T05:15:11;5.37;;;5.13;;
6207;SDS011;3137;51.550;7.060;2023-03-16T05:17:40;5.57;;;5.17;;
6207;SDS011;3137;51.550;7.060;2023-03-16T05:20:09;6.67;;;5.73;;
6207;SDS011;3137;51.550;7.060;2023-03-16T05:22:45;5.10;;;4.83;;
6207;SDS011;3137;51.550;7.060;2023-03-16T05:25:18;6.17;;;5.80;;
6207;SDS011;3137;51.550;7.060;2023-03-16T05:27:50;5.93;;;5.43;;
6207;SDS011;3137;51.550;7.060;2023-03-16T05:30:26;6.00;;;5.53;;
6207;SDS011;3137;51.550;7.060;2023-03-16T05:32:56;5.67;;;5.43;;
6207;SDS011;3137;51.550;7.060;2023-03-16T05:35:24;5.93;;;5.73;;
6207;SDS011;3137;51.550;7.060;2023-03-16T05:37:54;6.83;;;6.60;;
6207;SDS011;3137;51.550;7.060;2023-03-16T05:40:21;7.00;;;6.50;;
6207;SDS011;3137;51.550;7.060;2023-03-16T05:42:56;12.70;;;7.13;;
6207;SDS011;3137;51.550;7.060;2023-03-16T05:45:26;6.37;;;5.87;;
6207;SDS011;3137;51.550;7.060;2023-03-16T05:48:01;7.60;;;6.90;;
6207;SDS011;3137;51.550;7.060;2023-03-16T05:50:28;6.60;;;6.27;;
6207;SDS011;3137;51.550;7.060;2023-03-16T05:52:55;10.73;;;6.53;;
6207;SDS011;3137;51.550;7.060;2023-03-16T05:55:22;8.90;;;6.53;;
6207;SDS011;3137;51.550;7.060;2023-03-16T05:57:54;7.37;;;6.80;;
6207;SDS011;3137;51.550;7.060;2023-03-16T06:00:21;7.57;;;6.93;;
6207;SDS011;3137;51.550;7.060;2023-03-16T06:02:57;6.40;;;6.20;;
6207;SDS011;3137;51.550;7.060;2023-03-16T06:05:28;7.17;;;6.57;;
6207;SDS011;3137;51.550;7.060;2023-03-16T06:07:55;11.57;;;6.77;;
6207;SDS011;3137;51.550;7.060;2023-03-16T06:10:23;7.10;;;6.40;;
6207;SDS011;3137;51.550;7.060;2023-03-16T06:12:51;7.33;;;6.80;;
6207;SDS011;3137;51.550;7.060;2023-03-16T06:15:19;7.60;;;6.57;;
6207;SDS011;3137;51.550;7.060;2023-03-16T06:17:50;9.37;;;8.47;;
6207;SDS011;3137;51.550;7.060;2023-03-16T06:20:17;21.63;;;8.27;;
6207;SDS011;3137;51.550;7.060;2023-03-16T06:22:44;11.87;;;7.97;;
6207;SDS011;3137;51.550;7.060;2023-03-16T06:25:11;15.03;;;7.30;;
6207;SDS011;3137;51.550;7.060;2023-03-16T06:27:41;8.10;;;7.37;;
6207;SDS011;3137;51.550;7.060;2023-03-16T06:30:11;7.40;;;6.90;;
6207;SDS011;3137;51.550;7.060;2023-03-16T06:32:38;7.43;;;6.67;;
6207;SDS011;3137;51.550;7.060;2023-03-16T06:35:07;6.93;;;6.30;;
6207;SDS011;3137;51.550;7.060;2023-03-16T06:37:37;17.17;;;7.00;;
6207;SDS011;3137;51.550;7.060;2023-03-16T06:40:18;7.20;;;6.70;;
6207;SDS011;3137;51.550;7.060;2023-03-16T06:42:45;7.93;;;7.43;;
6207;SDS011;3137;51.550;7.060;2023-03-16T06:45:16;7.17;;;6.30;;
6207;SDS011;3137;51.550;7.060;2023-03-16T06:47:43;10.33;;;7.07;;
6207;SDS011;3137;51.550;7.060;2023-03-16T06:50:10;15.07;;;6.43;;
6207;SDS011;3137;51.550;7.060;2023-03-16T06:52:38;8.33;;;6.53;;
6207;SDS011;3137;51.550;7.060;2023-03-16T06:55:05;9.03;;;6.53;;
6207;SDS011;3137;51.550;7.060;2023-03-16T06:57:34;6.97;;;6.50;;
6207;SDS011;3137;51.550;7.060;2023-03-16T07:00:00;6.47;;;5.93;;
6207;SDS011;3137;51.550;7.060;2023-03-16T07:02:29;6.67;;;6.27;;
6207;SDS011;3137;51.550;7.060;2023-03-16T07:04:55;5.93;;;5.73;;
6207;SDS011;3137;51.550;7.060;2023-03-16T07:07:22;8.87;;;8.27;;
6207;SDS011;3137;51.550;7.060;2023-03-16T07:09:49;6.07;;;5.83;;
6207;SDS011;3137;51.550;7.060;2023-03-16T07:12:16;6.63;;;6.33;;
6207;SDS011;3137;51.550;7.060;2023-03-16T07:14:43;7.20;;;6.80;;
6207;SDS011;3137;51.550;7.060;2023-03-16T07:17:12;5.40;;;5.30;;
6207;SDS011;3137;51.550;7.060;2023-03-16T07:19:38;6.23;;;5.80;;
6207;SDS011;3137;51.550;7.060;2023-03-16T07:22:05;6.77;;;6.47;;
6207;SDS011;3137;51.550;7.060;2023-03-16T07:24:35;7.40;;;6.80;;
6207;SDS011;3137;51.550;7.060;2023-03-16T07:27:02;5.70;;;5.50;;
6207;SDS011;3137;51.550;7.060;2023-03-16T07:29:30;5.90;;;5.80;;
6207;SDS011;3137;51.550;7.060;2023-03-16T07:31:56;6.93;;;6.50;;
6207;SDS011;3137;51.550;7.060;2023-03-16T07:34:30;7.30;;;6.73;;
6207;SDS011;3137;51.550;7.060;2023-03-16T07:36:57;5.47;;;5.27;;
6207;SDS011;3137;51.550;7.060;2023-03-16T07:39:27;10.27;;;6.70;;
6207;SDS011;3137;51.550;7.060;2023-03-16T07:42:00;6.30;;;5.97;;
6207;SDS011;3137;51.550;7.060;2023-03-16T07:44:45;6.60;;;6.07;;
6207;SDS011;3137;51.550;7.060;2023-03-16T07:47:12;6.70;;;6.50;;
6207;SDS011;3137;51.550;7.060;2023-03-16T07:49:39;6.00;;;5.50;;
6207;SDS011;3137;51.550;7.060;2023-03-16T07:52:07;5.80;;;5.70;;
6207;SDS011;3137;51.550;7.060;2023-03-16T07:54:38;5.80;;;5.30;;
6207;SDS011;3137;51.550;7.060;2023-03-16T07:57:06;8.43;;;6.30;;
6207;SDS011;3137;51.550;7.060;2023-03-16T07:59:37;6.23;;;5.70;;
6207;SDS011;3137;51.550;7.060;2023-03-16T08:02:10;7.60;;;5.30;;
6207;SDS011;3137;51.550;7.060;2023-03-16T08:04:42;6.73;;;6.13;;
6207;SDS011;3137;51.550;7.060;2023-03-16T08:07:11;5.80;;;4.97;;
6207;SDS011;3137;51.550;7.060;2023-03-16T08:09:49;6.67;;;5.07;;
6207;SDS011;3137;51.550;7.060;2023-03-16T08:12:21;5.80;;;5.60;;
6207;SDS011;3137;51.550;7.060;2023-03-16T08:14:48;11.27;;;5.57;;
6207;SDS011;3137;51.550;7.060;2023-03-16T08:17:18;5.10;;;4.97;;
6207;SDS011;3137;51.550;7.060;2023-03-16T08:19:46;8.87;;;5.93;;
6207;SDS011;3137;51.550;7.060;2023-03-16T08:22:13;5.83;;;5.63;;
6207;SDS011;3137;51.550;7.060;2023-03-16T08:24:43;8.90;;;5.23;;
6207;SDS011;3137;51.550;7.060;2023-03-16T08:27:11;5.57;;;5.37;;
6207;SDS011;3137;51.550;7.060;2023-03-16T08:29:41;5.60;;;5.40;;
6207;SDS011;3137;51.550;7.060;2023-03-16T08:32:12;5.77;;;5.57;;
6207;SDS011;3137;51.550;7.060;2023-03-16T08:34:41;5.67;;;5.40;;
6207;SDS011;3137;51.550;7.060;2023-03-16T08:37:09;8.83;;;5.17;;
6207;SDS011;3137;51.550;7.060;2023-03-16T08:39:35;5.77;;;5.00;;
6207;SDS011;3137;51.550;7.060;2023-03-16T08:42:06;9.77;;;5.20;;
6207;SDS011;3137;51.550;7.060;2023-03-16T08:44:39;5.70;;;4.90;;
6207;SDS011;3137;51.550;7.060;2023-03-16T08:47:06;6.50;;;4.80;;
6207;SDS011;3137;51.550;7.060;2023-03-16T08:49:34;5.10;;;4.93;;
6207;SDS011;3137;51.550;7.060;2023-03-16T08:52:08;6.30;;;5.00;;
6207;SDS011;3137;51.550;7.060;2023-03-16T08:54:35;5.33;;;4.83;;
6207;SDS011;3137;51.550;7.060;2023-03-16T08:57:02;6.17;;;5.57;;
6207;SDS011;3137;51.550;7.060;2023-03-16T08:59:29;5.33;;;5.10;;
6207;SDS011;3137;51.550;7.060;2023-03-16T09:01:56;5.90;;;5.30;;
6207;SDS011;3137;51.550;7.060;2023-03-16T09:04:22;5.83;;;4.90;;
6207;SDS011;3137;51.550;7.060;2023-03-16T09:06:49;6.13;;;5.63;;
6207;SDS011;3137;51.550;7.060;2023-03-16T09:09:33;5.83;;;5.53;;
6207;SDS011;3137;51.550;7.060;2023-03-16T09:12:00;4.83;;;4.63;;
6207;SDS011;3137;51.550;7.060;2023-03-16T09:14:27;5.80;;;5.43;;
6207;SDS011;3137;51.550;7.060;2023-03-16T09:16:54;5.67;;;5.47;;
6207;SDS011;3137;51.550;7.060;2023-03-16T09:19:21;5.60;;;5.40;;
6207;SDS011;3137;51.550;7.060;2023-03-16T09:21:48;5.53;;;5.53;;
6207;SDS011;3137;51.550;7.060;2023-03-16T09:24:14;6.77;;;6.37;;
6207;SDS011;3137;51.550;7.060;2023-03-16T09:26:40;6.03;;;5.93;;
6207;SDS011;3137;51.550;7.060;2023-03-16T09:29:07;6.20;;;6.00;;
6207;SDS011;3137;51.550;7.060;2023-03-16T09:31:34;5.83;;;5.53;;
6207;SDS011;3137;51.550;7.060;2023-03-16T09:34:01;6.17;;;5.87;;
6207;SDS011;3137;51.550;7.060;2023-03-16T09:36:27;6.33;;;6.03;;
6207;SDS011;3137;51.550;7.060;2023-03-16T09:38:54;7.07;;;6.37;;
6207;SDS011;3137;51.550;7.060;2023-03-16T09:41:25;6.57;;;6.23;;
6207;SDS011;3137;51.550;7.060;2023-03-16T09:46:40;7.63;;;7.00;;
6207;SDS011;3137;51.550;7.060;2023-03-16T09:49:11;9.63;;;6.63;;
6207;SDS011;3137;51.550;7.060;2023-03-16T09:51:43;7.03;;;6.80;;
6207;SDS011;3137;51.550;7.060;2023-03-16T09:57:23;7.57;;;7.07;;
6207;SDS011;3137;51.550;7.060;2023-03-16T09:59:54;7.33;;;7.03;;
6207;SDS011;3137;51.550;7.060;2023-03-16T10:05:14;8.07;;;5.97;;
6207;SDS011;3137;51.550;7.060;2023-03-16T10:10:44;8.00;;;7.60;;
6207;SDS011;3137;51.550;7.060;2023-03-16T10:13:29;6.97;;;6.13;;
6207;SDS011;3137;51.550;7.060;2023-03-16T10:16:06;7.60;;;7.20;;
6207;SDS011;3137;51.550;7.060;2023-03-16T10:18:43;7.23;;;6.90;;
6207;SDS011;3137;51.550;7.060;2023-03-16T10:21:13;7.40;;;6.87;;
6207;SDS011;3137;51.550;7.060;2023-03-16T10:23:42;7.50;;;6.77;;
6207;SDS011;3137;51.550;7.060;2023-03-16T10:26:11;11.87;;;7.53;;
6207;SDS011;3137;51.550;7.060;2023-03-16T10:28:40;9.60;;;7.40;;
6207;SDS011;3137;51.550;7.060;2023-03-16T10:31:08;8.13;;;7.33;;
6207;SDS011;3137;51.550;7.060;2023-03-16T10:33:37;7.77;;;7.00;;
6207;SDS011;3137;51.550;7.060;2023-03-16T10:36:20;8.60;;;8.03;;
6207;SDS011;3137;51.550;7.060;2023-03-16T10:38:50;8.47;;;7.47;;
6207;SDS011;3137;51.550;7.060;2023-03-16T10:41:22;7.37;;;6.67;;
6207;SDS011;3137;51.550;7.060;2023-03-16T10:43:53;10.87;;;8.47;;
6207;SDS011;3137;51.550;7.060;2023-03-16T10:46:25;8.43;;;7.70;;
6207;SDS011;3137;51.550;7.060;2023-03-16T10:48:58;15.50;;;7.13;;
6207;SDS011;3137;51.550;7.060;2023-03-16T10:51:27;9.27;;;8.33;;
6207;SDS011;3137;51.550;7.060;2023-03-16T10:53:57;7.87;;;7.40;;
6207;SDS011;3137;51.550;7.060;2023-03-16T10:56:39;8.03;;;7.40;;
6207;SDS011;3137;51.550;7.060;2023-03-16T10:59:20;6.33;;;5.90;;
6207;SDS011;3137;51.550;7.060;2023-03-16T11:01:51;5.70;;;5.47;;
6207;SDS011;3137;51.550;7.060;2023-03-16T11:04:17;6.93;;;6.33;;
6207;SDS011;3137;51.550;7.060;2023-03-16T11:06:50;7.43;;;6.67;;
6207;SDS011;3137;51.550;7.060;2023-03-16T11:09:22;6.67;;;6.33;;
6207;SDS011;3137;51.550;7.060;2023-03-16T11:11:52;5.87;;;5.67;;
6207;SDS011;3137;51.550;7.060;2023-03-16T11:14:21;6.27;;;5.93;;
6207;SDS011;3137;51.550;7.060;2023-03-16T11:19:36;6.10;;;5.77;;
6207;SDS011;3137;51.550;7.060;2023-03-16T11:22:12;8.30;;;7.23;;
6207;SDS011;3137;51.550;7.060;2023-03-16T11:30:23;6.07;;;5.87;;
6207;SDS011;3137;51.550;7.060;2023-03-16T11:32:54;5.03;;;4.97;;
6207;SDS011;3137;51.550;7.060;2023-03-16T11:36:08;6.13;;;5.93;;
6207;SDS011;3137;51.550;7.060;2023-03-16T11:41:10;5.60;;;5.30;;
6207;SDS011;3137;51.550;7.060;2023-03-16T11:43:48;5.53;;;5.43;;
6207;SDS011;3137;51.550;7.060;2023-03-16T11:46:19;4.63;;;4.53;;
6207;SDS011;3137;51.550;7.060;2023-03-16T11:51:47;4.77;;;4.57;;
6207;SDS011;3137;51.550;7.060;2023-03-16T12:03:13;5.10;;;4.90;;
6207;SDS011;3137;51.550;7.060;2023-03-16T12:09:16;4.27;;;4.07;;
6207;SDS011;3137;51.550;7.060;2023-03-16T12:14:24;4.70;;;4.23;;
6207;SDS011;3137;51.550;7.060;2023-03-16T12:16:59;4.13;;;3.90;;
6207;SDS011;3137;51.550;7.060;2023-03-16T12:19:38;3.47;;;3.37;;
6207;SDS011;3137;51.550;7.060;2023-03-16T12:22:16;3.97;;;3.87;;
6207;SDS011;3137;51.550;7.060;2023-03-16T12:24:46;6.43;;;3.90;;
6207;SDS011;3137;51.550;7.060;2023-03-16T12:27:15;3.83;;;3.80;;
6207;SDS011;3137;51.550;7.060;2023-03-16T12:32:34;4.57;;;3.97;;
6207;SDS011;3137;51.550;7.060;2023-03-16T12:35:15;3.80;;;3.60;;
6207;SDS011;3137;51.550;7.060;2023-03-16T12:40:44;4.20;;;4.00;;
6207;SDS011;3137;51.550;7.060;2023-03-16T12:46:15;36.63;;;4.77;;
6207;SDS011;3137;51.550;7.060;2023-03-16T12:48:56;19.27;;;3.43;;
6207;SDS011;3137;51.550;7.060;2023-03-16T12:51:35;3.47;;;3.20;;
6207;SDS011;3137;51.550;7.060;2023-03-16T12:54:22;2.73;;;2.73;;
6207;SDS011;3137;51.550;7.060;2023-03-16T12:56:51;3.30;;;3.30;;
6207;SDS011;3137;51.550;7.060;2023-03-16T12:59:20;3.33;;;3.23;;
6207;SDS011;3137;51.550;7.060;2023-03-16T13:01:49;3.03;;;2.77;;
6207;SDS011;3137;51.550;7.060;2023-03-16T13:04:30;6.60;;;2.90;;
6207;SDS011;3137;51.550;7.060;2023-03-16T13:07:01;6.00;;;3.33;;
6207;SDS011;3137;51.550;7.060;2023-03-16T13:09:34;5.57;;;3.73;;
6207;SDS011;3137;51.550;7.060;2023-03-16T13:12:07;4.90;;;3.40;;
6207;SDS011;3137;51.550;7.060;2023-03-16T13:17:04;4.00;;;3.30;;
6207;SDS011;3137;51.550;7.060;2023-03-16T13:20:00;3.27;;;3.27;;
6207;SDS011;3137;51.550;7.060;2023-03-16T13:25:44;3.03;;;2.93;;
6207;SDS011;3137;51.550;7.060;2023-03-16T13:28:32;3.10;;;2.97;;
6207;SDS011;3137;51.550;7.060;2023-03-16T13:31:02;7.83;;;3.50;;
6207;SDS011;3137;51.550;7.060;2023-03-16T13:33:30;3.47;;;3.37;;
6207;SDS011;3137;51.550;7.060;2023-03-16T13:36:02;3.20;;;3.03;;
6207;SDS011;3137;51.550;7.060;2023-03-16T13:38:31;6.13;;;3.97;;
6207;SDS011;3137;51.550;7.060;2023-03-16T13:41:01;3.50;;;3.20;;
6207;SDS011;3137;51.550;7.060;2023-03-16T13:43:30;2.67;;;2.60;;
6207;SDS011;3137;51.550;7.060;2023-03-16T13:45:58;2.93;;;2.80;;
6207;SDS011;3137;51.550;7.060;2023-03-16T13:48:24;3.30;;;3.03;;
6207;SDS011;3137;51.550;7.060;2023-03-16T13:50:51;3.50;;;3.40;;
6207;SDS011;3137;51.550;7.060;2023-03-16T13:53:24;8.20;;;3.00;;
6207;SDS011;3137;51.550;7.060;2023-03-16T13:55:54;5.97;;;3.53;;
6207;SDS011;3137;51.550;7.060;2023-03-16T13:58:23;13.33;;;3.40;;
6207;SDS011;3137;51.550;7.060;2023-03-16T14:00:59;3.13;;;3.03;;
6207;SDS011;3137;51.550;7.060;2023-03-16T14:03:31;5.33;;;3.53;;
6207;SDS011;3137;51.550;7.060;2023-03-16T14:06:02;3.87;;;3.63;;
6207;SDS011;3137;51.550;7.060;2023-03-16T14:08:30;2.83;;;2.83;;
6207;SDS011;3137;51.550;7.060;2023-03-16T14:10:57;3.90;;;3.87;;
6207;SDS011;3137;51.550;7.060;2023-03-16T14:15:53;3.57;;;3.57;;
6207;SDS011;3137;51.550;7.060;2023-03-16T14:18:23;3.63;;;3.47;;
6207;SDS011;3137;51.550;7.060;2023-03-16T14:20:57;4.03;;;3.73;;
6207;SDS011;3137;51.550;7.060;2023-03-16T14:23:24;4.20;;;3.97;;
6207;SDS011;3137;51.550;7.060;2023-03-16T14:25:56;3.90;;;3.57;;
6207;SDS011;3137;51.550;7.060;2023-03-16T14:28:27;5.77;;;3.00;;
6207;SDS011;3137;51.550;7.060;2023-03-16T14:31:02;4.00;;;3.80;;
6207;SDS011;3137;51.550;7.060;2023-03-16T14:33:30;3.93;;;3.83;;
6207;SDS011;3137;51.550;7.060;2023-03-16T14:36:05;3.70;;;3.40;;
6207;SDS011;3137;51.550;7.060;2023-03-16T14:38:35;4.43;;;3.80;;
6207;SDS011;3137;51.550;7.060;2023-03-16T14:41:17;4.33;;;4.13;;
6207;SDS011;3137;51.550;7.060;2023-03-16T14:43:50;4.57;;;4.27;;
6207;SDS011;3137;51.550;7.060;2023-03-16T14:49:13;4.13;;;3.97;;
6207;SDS011;3137;51.550;7.060;2023-03-16T14:51:45;3.83;;;3.73;;
6207;SDS011;3137;51.550;7.060;2023-03-16T14:54:14;3.53;;;3.43;;
6207;SDS011;3137;51.550;7.060;2023-03-16T14:56:42;3.40;;;3.30;;
6207;SDS011;3137;51.550;7.060;2023-03-16T14:59:13;4.10;;;4.00;;
6207;SDS011;3137;51.550;7.060;2023-03-16T15:01:39;4.20;;;4.00;;
6207;SDS011;3137;51.550;7.060;2023-03-16T15:04:06;3.97;;;3.77;;
6207;SDS011;3137;51.550;7.060;2023-03-16T15:06:32;4.13;;;3.60;;
6207;SDS011;3137;51.550;7.060;2023-03-16T15:09:00;5.67;;;5.17;;
6207;SDS011;3137;51.550;7.060;2023-03-16T15:11:27;13.00;;;8.83;;
6207;SDS011;3137;51.550;7.060;2023-03-16T15:13:54;5.67;;;5.13;;
6207;SDS011;3137;51.550;7.060;2023-03-16T15:16:39;5.40;;;3.83;;
6207;SDS011;3137;51.550;7.060;2023-03-16T15:19:07;3.03;;;3.03;;
6207;SDS011;3137;51.550;7.060;2023-03-16T15:21:35;4.10;;;3.97;;
6207;SDS011;3137;51.550;7.060;2023-03-16T15:24:01;5.30;;;4.87;;
6207;SDS011;3137;51.550;7.060;2023-03-16T15:26:28;3.70;;;3.40;;
6207;SDS011;3137;51.550;7.060;2023-03-16T15:28:55;3.03;;;3.03;;
6207;SDS011;3137;51.550;7.060;2023-03-16T15:31:22;5.40;;;3.23;;
6207;SDS011;3137;51.550;7.060;2023-03-16T15:33:49;3.27;;;3.07;;
6207;SDS011;3137;51.550;7.060;2023-03-16T15:36:20;3.73;;;3.53;;
6207;SDS011;3137;51.550;7.060;2023-03-16T15:38:48;2.57;;;2.47;;
6207;SDS011;3137;51.550;7.060;2023-03-16T15:41:16;8.23;;;3.10;;
6207;SDS011;3137;51.550;7.060;2023-03-16T15:43:43;2.83;;;2.83;;
6207;SDS011;3137;51.550;7.060;2023-03-16T15:46:13;2.93;;;2.93;;
6207;SDS011;3137;51.550;7.060;2023-03-16T15:48:40;3.97;;;3.70;;
6207;SDS011;3137;51.550;7.060;2023-03-16T15:51:08;2.90;;;2.90;;
6207;SDS011;3137;51.550;7.060;2023-03-16T15:53:44;3.13;;;3.07;;
6207;SDS011;3137;51.550;7.060;2023-03-16T15:56:16;7.50;;;2.50;;
6207;SDS011;3137;51.550;7.060;2023-03-16T15:58:47;2.97;;;2.73;;
6207;SDS011;3137;51.550;7.060;2023-03-16T16:01:20;2.83;;;2.73;;
6207;SDS011;3137;51.550;7.060;2023-03-16T16:03:49;3.20;;;3.10;;
6207;SDS011;3137;51.550;7.060;2023-03-16T16:06:16;3.33;;;3.10;;
6207;SDS011;3137;51.550;7.060;2023-03-16T16:08:43;2.43;;;2.33;;
6207;SDS011;3137;51.550;7.060;2023-03-16T16:11:25;15.67;;;3.03;;
6207;SDS011;3137;51.550;7.060;2023-03-16T16:13:53;3.33;;;3.23;;
6207;SDS011;3137;51.550;7.060;2023-03-16T16:16:22;2.50;;;2.20;;
6207;SDS011;3137;51.550;7.060;2023-03-16T16:18:50;2.80;;;2.80;;
6207;SDS011;3137;51.550;7.060;2023-03-16T16:21:18;2.50;;;2.40;;
6207;SDS011;3137;51.550;7.060;2023-03-16T16:23:49;9.50;;;2.27;;
6207;SDS011;3137;51.550;7.060;2023-03-16T16:29:16;4.33;;;3.23;;
6207;SDS011;3137;51.550;7.060;2023-03-16T16:31:47;2.70;;;2.70;;
6207;SDS011;3137;51.550;7.060;2023-03-16T16:34:14;3.33;;;3.23;;
6207;SDS011;3137;51.550;7.060;2023-03-16T16:36:43;3.10;;;3.00;;
6207;SDS011;3137;51.550;7.060;2023-03-16T16:39:10;2.97;;;2.87;;
6207;SDS011;3137;51.550;7.060;2023-03-16T16:41:37;2.97;;;2.87;;
6207;SDS011;3137;51.550;7.060;2023-03-16T16:44:05;3.23;;;3.00;;
6207;SDS011;3137;51.550;7.060;2023-03-16T16:46:41;4.03;;;3.83;;
6207;SDS011;3137;51.550;7.060;2023-03-16T16:51:55;5.87;;;5.47;;